Time;durP1;ratioP1;P1;durP2;ratioP2;P2;SDS_P1;SDS_P2;PMS_P1;PMS_P2;Temp;Humidity;BMP_temperature;BMP_pressure;BME280_temperature;BME280_humidity;BME280_pressure;Samples;Min_cycle;Max_cycle;Signal;HPM_P1;HPM_P2
2023/12/20 00:00:15;;;;;;;0.40;0.40;;;;;;;4.60;100.00;101485.16;5095485;28;20030;-49
2023/12/20 00:02:40;;;;;;;0.43;0.43;;;;;;;4.54;100.00;101485.63;5094686;28;20052;-47
2023/12/20 00:05:06;;;;;;;0.40;0.40;;;;;;;4.50;100.00;101498.09;5095365;28;20035;-47
2023/12/20 00:07:31;;;;;;;0.32;0.32;;;;;;;4.45;100.00;101495.25;5094766;28;20074;-49
2023/12/20 00:09:56;;;;;;;0.30;0.30;;;;;;;4.41;100.00;101503.50;5094469;28;20044;-48
2023/12/20 00:12:22;;;;;;;0.40;0.40;;;;;;;4.35;100.00;101503.09;5094311;28;20039;-45
2023/12/20 00:14:47;;;;;;;0.30;0.30;;;;;;;4.34;100.00;101496.22;5095272;28;20028;-48
2023/12/20 00:17:13;;;;;;;0.40;0.40;;;;;;;4.29;100.00;101493.38;5093953;28;20035;-49
2023/12/20 00:19:38;;;;;;;0.40;0.40;;;;;;;4.28;100.00;101505.22;5095046;28;20032;-47
2023/12/20 00:22:03;;;;;;;0.40;0.40;;;;;;;4.29;100.00;101507.00;5093751;28;20387;-48
2023/12/20 00:24:29;;;;;;;0.40;0.40;;;;;;;4.31;100.00;101496.03;5094003;28;20491;-48
2023/12/20 00:26:54;;;;;;;0.30;0.30;;;;;;;4.30;100.00;101505.34;5094693;28;20384;-46
2023/12/20 00:29:19;;;;;;;0.40;0.40;;;;;;;4.26;100.00;101501.72;5094378;28;20032;-45
2023/12/20 00:31:45;;;;;;;0.40;0.40;;;;;;;4.22;100.00;101497.19;5094046;28;20020;-47
2023/12/20 00:34:10;;;;;;;0.40;0.40;;;;;;;4.20;100.00;101488.53;5094562;28;20032;-47
2023/12/20 00:36:35;;;;;;;0.38;0.38;;;;;;;4.12;100.00;101484.63;5094505;28;20024;-50
2023/12/20 00:39:01;;;;;;;0.35;0.35;;;;;;;4.10;100.00;101491.28;5094087;28;20028;-45
2023/12/20 00:41:26;;;;;;;0.30;0.30;;;;;;;4.05;100.00;101477.34;5094161;28;20023;-47
2023/12/20 00:43:51;;;;;;;0.40;0.40;;;;;;;4.03;100.00;101483.97;5093988;28;20383;-47
2023/12/20 00:46:16;;;;;;;0.30;0.30;;;;;;;3.98;100.00;101475.16;5094209;28;20052;-44
2023/12/20 00:48:42;;;;;;;0.30;0.30;;;;;;;3.95;100.00;101475.81;5094519;28;20375;-45
2023/12/20 00:51:07;;;;;;;0.30;0.30;;;;;;;3.93;100.00;101478.28;5093727;28;20039;-48
2023/12/20 00:53:32;;;;;;;0.30;0.30;;;;;;;3.88;100.00;101479.63;5094071;28;20027;-49
2023/12/20 00:55:58;;;;;;;0.30;0.30;;;;;;;3.86;100.00;101470.13;5094159;28;20028;-48
2023/12/20 00:58:24;;;;;;;0.30;0.30;;;;;;;3.83;100.00;101470.78;5093430;28;20490;-46
2023/12/20 01:00:49;;;;;;;0.40;0.40;;;;;;;3.81;100.00;101477.47;5094080;28;20486;-46
2023/12/20 01:03:15;;;;;;;0.40;0.40;;;;;;;3.85;100.00;101487.09;5093936;28;20099;-47
2023/12/20 01:05:40;;;;;;;0.40;0.40;;;;;;;3.85;100.00;101483.66;5093424;28;20380;-48
2023/12/20 01:08:06;;;;;;;0.40;0.40;;;;;;;3.82;100.00;101473.25;5094217;28;20102;-47
2023/12/20 01:10:31;;;;;;;0.40;0.40;;;;;;;3.79;100.00;101476.47;5093383;28;20131;-46
2023/12/20 01:12:57;;;;;;;0.40;0.40;;;;;;;3.77;100.00;101480.56;5093113;28;20099;-45
2023/12/20 01:15:23;;;;;;;0.32;0.32;;;;;;;3.74;100.00;101488.03;5093760;28;20039;-47
2023/12/20 01:17:49;;;;;;;0.40;0.40;;;;;;;3.78;100.00;101488.34;5093952;28;20027;-48
2023/12/20 01:20:14;;;;;;;0.47;0.47;;;;;;;3.78;100.00;101490.00;5092679;28;20073;-47
2023/12/20 01:22:40;;;;;;;0.40;0.40;;;;;;;3.76;100.00;101484.81;5093788;28;20024;-48
2023/12/20 01:25:05;;;;;;;0.40;0.40;;;;;;;3.77;100.00;101491.69;5093427;28;20095;-47
2023/12/20 01:27:31;;;;;;;0.40;0.40;;;;;;;3.78;100.00;101492.56;5093088;28;20032;-46
2023/12/20 01:29:56;;;;;;;0.40;0.40;;;;;;;3.75;100.00;101477.06;5093792;28;20032;-48
2023/12/20 01:32:22;;;;;;;0.30;0.30;;;;;;;3.77;100.00;101485.69;5093025;28;20028;-48
2023/12/20 01:34:48;;;;;;;0.50;0.50;;;;;;;3.79;100.00;101481.56;5092685;28;20034;-46
2023/12/20 01:37:14;;;;;;;0.40;0.40;;;;;;;3.82;100.00;101489.41;5093132;28;20048;-48
2023/12/20 01:39:39;;;;;;;0.40;0.40;;;;;;;3.78;100.00;101492.56;5093303;28;20023;-45
2023/12/20 01:42:04;;;;;;;0.40;0.40;;;;;;;3.78;100.00;101493.47;5093134;28;20452;-47
2023/12/20 01:44:30;;;;;;;0.30;0.30;;;;;;;3.78;100.00;101490.00;5093434;28;20016;-49
2023/12/20 01:46:56;;;;;;;0.40;0.40;;;;;;;3.75;100.00;101490.69;5093054;28;20097;-48
2023/12/20 01:49:21;;;;;;;0.40;0.40;;;;;;;3.74;100.00;101485.47;5092583;28;20383;-49
2023/12/20 01:51:47;;;;;;;0.40;0.40;;;;;;;3.74;100.00;101490.59;5093481;28;20024;-47
2023/12/20 01:54:13;;;;;;;0.40;0.40;;;;;;;3.75;100.00;101477.06;5092135;28;20115;-45
2023/12/20 01:56:39;;;;;;;0.40;0.40;;;;;;;3.74;100.00;101481.25;5093228;28;20031;-48
2023/12/20 01:59:07;;;;;;;0.40;0.40;;;;;;;3.76;100.00;101487.34;5093211;28;20499;-48
2023/12/20 02:01:32;;;;;;;;;;;;;;;3.80;100.00;101485.91;5092669;28;20073;-47
2023/12/20 02:03:59;;;;;;;0.40;0.40;;;;;;;3.71;100.00;101485.28;5093115;28;19911;-47
2023/12/20 02:06:29;;;;;;;0.30;0.30;;;;;;;3.70;100.00;101478.41;5092606;28;20020;-47
2023/12/20 02:08:54;;;;;;;0.40;0.40;;;;;;;3.71;100.00;101485.28;5092216;28;20028;-45
2023/12/20 02:11:21;;;;;;;0.40;0.40;;;;;;;3.71;100.00;101496.34;5092701;28;20032;-47
2023/12/20 02:13:46;;;;;;;0.40;0.40;;;;;;;3.69;100.00;101489.38;5093063;28;20157;-47
2023/12/20 02:16:11;;;;;;;0.40;0.40;;;;;;;3.67;100.00;101493.47;5091873;28;20118;-48
2023/12/20 02:18:37;;;;;;;0.40;0.40;;;;;;;3.66;100.00;101482.41;5092663;28;20103;-47
2023/12/20 02:21:04;;;;;;;0.40;0.40;;;;;;;3.61;100.00;101489.75;5092700;28;20028;-47
2023/12/20 02:23:30;;;;;;;0.40;0.40;;;;;;;3.61;100.00;101484.63;5091706;28;20025;-45
2023/12/20 02:25:55;;;;;;;0.40;0.40;;;;;;;3.58;100.00;101479.34;5092688;28;20031;-48
2023/12/20 02:28:22;;;;;;;0.40;0.40;;;;;;;3.65;100.00;101482.31;5092376;28;20095;-48
2023/12/20 02:30:49;;;;;;;0.37;0.37;;;;;;;3.68;100.00;101487.59;5092230;28;20024;-49
2023/12/20 02:33:15;;;;;;;0.43;0.43;;;;;;;3.70;100.00;101483.50;5092172;28;20316;-46
2023/12/20 02:35:40;;;;;;;0.32;0.32;;;;;;;3.76;100.00;101489.03;5092359;28;20031;-47
2023/12/20 02:38:06;;;;;;;0.50;0.50;;;;;;;3.76;100.00;101489.03;5091986;28;20024;-45
2023/12/20 02:40:32;;;;;;;0.40;0.40;;;;;;;3.76;100.00;101484.81;5092292;28;20024;-47
2023/12/20 02:42:57;;;;;;;0.30;0.30;;;;;;;3.80;100.00;101485.91;5092313;28;20356;-49
2023/12/20 02:45:22;;;;;;;0.40;0.40;;;;;;;3.82;100.00;101479.22;5092829;28;20081;-47
2023/12/20 02:47:48;;;;;;;0.40;0.40;;;;;;;3.84;100.00;101467.47;5096863;28;20030;-45
2023/12/20 02:50:13;;;;;;;0.40;0.40;;;;;;;3.85;100.00;101473.44;5095932;28;20137;-47
2023/12/20 02:52:38;;;;;;;0.40;0.40;;;;;;;3.85;100.00;101476.00;5096011;28;20032;-46
2023/12/20 02:55:04;;;;;;;0.38;0.38;;;;;;;3.88;100.00;101484.75;5096783;28;20024;-49
2023/12/20 02:57:29;;;;;;;0.43;0.43;;;;;;;3.90;100.00;101480.63;5095596;28;20024;-46
2023/12/20 02:59:54;;;;;;;0.50;0.50;;;;;;;3.88;100.00;101474.53;5096622;28;20035;-48
2023/12/20 03:02:20;;;;;;;0.40;0.40;;;;;;;3.88;100.00;101477.09;5096173;28;20039;-44
2023/12/20 03:04:45;;;;;;;0.50;0.50;;;;;;;3.91;100.00;101478.97;5095633;28;20126;-49
2023/12/20 03:07:11;;;;;;;0.40;0.40;;;;;;;3.96;100.00;101480.16;5095981;28;20482;-48
2023/12/20 03:09:37;;;;;;;0.40;0.40;;;;;;;4.01;100.00;101485.56;5096146;28;20383;-47
2023/12/20 03:12:02;;;;;;;0.30;0.30;;;;;;;4.02;100.00;101478.00;5095393;28;20452;-49
2023/12/20 03:14:28;;;;;;;0.32;0.32;;;;;;;4.06;100.00;101474.00;5095732;28;20024;-49
2023/12/20 03:16:53;;;;;;;0.40;0.40;;;;;;;4.09;100.00;101464.00;5096291;28;20020;-46
2023/12/20 03:19:21;;;;;;;0.40;0.40;;;;;;;4.10;100.00;101450.47;5094850;28;20027;-49
2023/12/20 03:21:46;;;;;;;0.40;0.40;;;;;;;4.09;100.00;101459.78;5096058;28;20149;-44
2023/12/20 03:24:11;;;;;;;0.40;0.40;;;;;;;4.09;100.00;101464.91;5095841;28;20103;-48
2023/12/20 03:26:37;;;;;;;0.50;0.50;;;;;;;4.09;100.00;101449.59;5095058;28;20150;-44
2023/12/20 03:29:02;;;;;;;0.40;0.40;;;;;;;4.03;100.00;101449.19;5096129;28;20103;-48
2023/12/20 03:31:27;;;;;;;0.38;0.38;;;;;;;3.98;100.00;101440.34;5095627;28;20023;-44
2023/12/20 03:33:53;;;;;;;0.50;0.50;;;;;;;3.95;100.00;101446.13;5095255;28;20030;-47
2023/12/20 03:36:19;;;;;;;0.40;0.40;;;;;;;3.97;100.00;101445.34;5095544;28;20020;-46
2023/12/20 03:38:44;;;;;;;0.50;0.50;;;;;;;3.98;100.00;101454.75;5095704;28;20016;-48
2023/12/20 03:41:10;;;;;;;0.40;0.40;;;;;;;3.95;100.00;101460.53;5094864;28;20095;-49
2023/12/20 03:43:35;;;;;;;0.30;0.30;;;;;;;3.97;100.00;101455.56;5095754;28;20352;-48
2023/12/20 03:46:00;;;;;;;0.40;0.40;;;;;;;3.97;100.00;101453.88;5095295;28;20073;-48
2023/12/20 03:48:25;;;;;;;0.40;0.40;;;;;;;3.99;100.00;101443.75;5094881;28;20055;-46
2023/12/20 03:50:51;;;;;;;0.30;0.30;;;;;;;4.00;100.00;101450.63;5095546;28;20479;-49
2023/12/20 03:53:16;;;;;;;0.40;0.40;;;;;;;4.00;100.00;101450.63;5095010;28;20024;-44
2023/12/20 03:55:41;;;;;;;0.30;0.30;;;;;;;4.03;100.00;101454.28;5094980;28;20052;-44
2023/12/20 03:58:06;;;;;;;0.40;0.40;;;;;;;4.06;100.00;101453.59;5095514;28;20078;-45
2023/12/20 04:00:32;;;;;;;0.30;0.30;;;;;;;4.09;100.00;101443.59;5094848;28;20375;-47
2023/12/20 04:02:57;;;;;;;0.40;0.40;;;;;;;4.11;100.00;101449.69;5094763;28;20506;-47
2023/12/20 04:05:22;;;;;;;0.40;0.40;;;;;;;4.14;100.00;101449.88;5095019;28;20024;-47
2023/12/20 04:07:48;;;;;;;0.40;0.40;;;;;;;4.16;100.00;101448.31;5094542;28;20016;-45
2023/12/20 04:10:13;;;;;;;0.43;0.43;;;;;;;4.20;100.00;101444.31;5094981;28;20024;-47
2023/12/20 04:12:38;;;;;;;0.30;0.30;;;;;;;4.23;100.00;101454.69;5095248;28;20055;-47
2023/12/20 04:15:08;;;;;;;0.30;0.30;;;;;;;4.26;100.00;101458.34;5094399;28;20076;-46
2023/12/20 04:17:34;;;;;;;0.40;0.40;;;;;;;4.31;100.00;101457.75;5094533;28;20028;-45
2023/12/20 04:19:59;;;;;;;0.40;0.40;;;;;;;4.33;100.00;101454.50;5094714;28;20039;-48
2023/12/20 04:22:24;;;;;;;0.40;0.40;;;;;;;4.37;100.00;101455.59;5093551;28;20060;-48
2023/12/20 04:24:50;;;;;;;0.40;0.40;;;;;;;4.39;100.00;101454.91;5094528;28;20024;-44
2023/12/20 04:27:15;;;;;;;0.40;0.40;;;;;;;4.44;100.00;101452.63;5094485;28;20032;-49
2023/12/20 04:29:40;;;;;;;0.40;0.40;;;;;;;4.46;100.00;101456.19;5094004;28;20051;-46
2023/12/20 04:32:06;;;;;;;0.40;0.40;;;;;;;4.49;100.00;101455.50;5094601;28;20391;-45
2023/12/20 04:34:31;;;;;;;0.40;0.40;;;;;;;4.50;100.00;101454.72;5094076;28;20020;-45
2023/12/20 04:36:56;;;;;;;0.38;0.38;;;;;;;4.52;100.00;101450.56;5093776;28;20047;-49
2023/12/20 04:39:22;;;;;;;0.40;0.40;;;;;;;4.53;100.00;101454.91;5094364;28;20032;-45
2023/12/20 04:41:50;;;;;;;0.40;0.40;;;;;;;4.54;100.00;101449.00;5094444;28;20054;-45
2023/12/20 04:44:15;;;;;;;0.30;0.30;;;;;;;4.55;100.00;101449.09;5093487;28;20103;-48
2023/12/20 04:46:41;;;;;;;0.30;0.30;;;;;;;4.58;100.00;101446.75;5094161;28;20044;-45
2023/12/20 04:49:06;;;;;;;0.40;0.40;;;;;;;4.59;100.00;101447.63;5094033;28;20027;-47
2023/12/20 04:51:35;;;;;;;0.40;0.40;;;;;;;4.60;100.00;101439.19;5093330;28;20050;-48
2023/12/20 04:54:01;;;;;;;0.40;0.40;;;;;;;4.58;100.00;101451.88;5094488;28;20035;-48
2023/12/20 04:56:26;;;;;;;0.40;0.40;;;;;;;4.60;100.00;101455.38;5093584;28;20525;-48
2023/12/20 04:58:52;;;;;;;0.40;0.40;;;;;;;4.63;100.00;101453.81;5093751;28;20044;-46
2023/12/20 05:01:17;;;;;;;0.40;0.40;;;;;;;4.65;100.00;101454.78;5093823;28;20355;-49
2023/12/20 05:03:42;;;;;;;0.43;0.43;;;;;;;4.67;100.00;101437.91;5111855;28;20490;-47
2023/12/20 05:06:08;;;;;;;0.40;0.40;;;;;;;4.68;100.00;101449.91;5113658;28;20119;-49
2023/12/20 05:08:33;;;;;;;0.30;0.30;;;;;;;4.71;100.00;101455.19;5098831;28;20031;-46
2023/12/20 05:10:58;;;;;;;0.30;0.30;;;;;;;4.73;100.00;101440.84;5093691;28;20570;-47
2023/12/20 05:13:23;;;;;;;0.32;0.32;;;;;;;4.73;100.00;101440.84;5093049;28;20024;-46
2023/12/20 05:15:49;;;;;;;0.40;0.40;;;;;;;4.74;100.00;101432.41;5093661;28;20024;-48
2023/12/20 05:18:14;;;;;;;0.30;0.30;;;;;;;4.73;100.00;101426.41;5092553;28;20498;-49
2023/12/20 05:20:40;;;;;;;0.40;0.40;;;;;;;4.76;100.00;101431.72;5093995;28;20039;-46
2023/12/20 05:23:05;;;;;;;0.38;0.38;;;;;;;4.78;100.00;101436.91;5093511;28;20511;-46
2023/12/20 05:25:31;;;;;;;0.40;0.40;;;;;;;4.79;100.00;101436.13;5092626;28;20039;-46
2023/12/20 05:27:56;;;;;;;0.40;0.40;;;;;;;4.81;100.00;101441.34;5093441;28;20024;-47
2023/12/20 05:30:22;;;;;;;0.30;0.30;;;;;;;4.80;100.00;101434.44;5093085;28;20040;-44
2023/12/20 05:32:47;;;;;;;0.40;0.40;;;;;;;4.80;100.00;101432.78;5092590;28;20016;-48
2023/12/20 05:35:12;;;;;;;0.40;0.40;;;;;;;4.80;100.00;101432.78;5093078;28;20133;-46
2023/12/20 05:37:38;;;;;;;0.40;0.40;;;;;;;4.79;100.00;101425.91;5093227;28;20032;-45
2023/12/20 05:40:04;;;;;;;0.40;0.40;;;;;;;4.77;100.00;101428.34;5092649;28;20016;-48
2023/12/20 05:42:29;;;;;;;0.30;0.30;;;;;;;4.75;100.00;101421.38;5093196;28;20070;-47
2023/12/20 05:44:54;;;;;;;0.40;0.40;;;;;;;4.74;100.00;101424.75;5093032;28;20108;-43
2023/12/20 05:47:20;;;;;;;0.40;0.40;;;;;;;4.71;100.00;101432.19;5092369;28;20093;-45
2023/12/20 05:49:45;;;;;;;0.40;0.40;;;;;;;4.67;100.00;101436.22;5093269;28;20024;-47
2023/12/20 05:52:10;;;;;;;0.40;0.40;;;;;;;4.63;100.00;101441.06;5092518;28;20024;-47
2023/12/20 05:54:35;;;;;;;0.32;0.32;;;;;;;4.57;100.00;101452.66;5092636;28;20034;-45
2023/12/20 05:57:01;;;;;;;0.40;0.40;;;;;;;4.50;100.00;101447.94;5093097;28;20074;-47
2023/12/20 05:59:26;;;;;;;0.30;0.30;;;;;;;4.42;100.00;101454.22;5092623;28;20020;-49
2023/12/20 06:01:51;;;;;;;0.30;0.30;;;;;;;4.37;100.00;101465.81;5092365;28;20368;-46
2023/12/20 06:04:17;;;;;;;0.40;0.40;;;;;;;4.34;100.00;101466.50;5092582;28;20024;-47
2023/12/20 06:06:42;;;;;;;0.40;0.40;;;;;;;4.32;100.00;101478.25;5093015;28;20416;-47
2023/12/20 06:09:08;;;;;;;0.40;0.40;;;;;;;4.32;100.00;101469.72;5092377;28;20058;-47
2023/12/20 06:11:33;;;;;;;0.35;0.35;;;;;;;4.32;100.00;101462.94;5092618;28;20028;-46
2023/12/20 06:13:59;;;;;;;0.30;0.30;;;;;;;4.34;100.00;101463.94;5092236;28;20051;-46
2023/12/20 06:16:24;;;;;;;0.40;0.40;;;;;;;4.36;100.00;101464.03;5092097;28;20464;-46
2023/12/20 06:18:49;;;;;;;0.40;0.40;;;;;;;4.36;100.00;101470.00;5092604;28;20471;-49
2023/12/20 06:21:15;;;;;;;0.40;0.40;;;;;;;4.36;100.00;101457.25;5091222;28;20028;-48
2023/12/20 06:23:40;;;;;;;0.40;0.40;;;;;;;4.36;100.00;101461.47;5092362;28;20174;-48
2023/12/20 06:26:06;;;;;;;0.40;0.40;;;;;;;4.35;100.00;101452.94;5092754;28;20032;-47
2023/12/20 06:28:31;;;;;;;0.40;0.40;;;;;;;4.31;100.00;101458.63;5091589;28;20050;-46
2023/12/20 06:30:57;;;;;;;0.40;0.40;;;;;;;4.24;100.00;101454.78;5092570;28;20426;-45
2023/12/20 06:33:22;;;;;;;0.40;0.40;;;;;;;4.19;100.00;101461.25;5092218;28;20101;-50
2023/12/20 06:35:48;;;;;;;0.40;0.40;;;;;;;4.15;100.00;101456.75;5092039;28;20034;-44
2023/12/20 06:38:14;;;;;;;0.47;0.47;;;;;;;4.15;100.00;101453.31;5092353;28;20016;-48
2023/12/20 06:40:39;;;;;;;0.40;0.40;;;;;;;4.14;100.00;101460.06;5092803;28;20048;-49
2023/12/20 06:43:06;;;;;;;0.40;0.40;;;;;;;4.16;100.00;101455.97;5091825;28;20490;-45
2023/12/20 06:45:31;;;;;;;0.40;0.40;;;;;;;4.16;100.00;101461.06;5092237;28;20044;-47
2023/12/20 06:47:57;;;;;;;0.30;0.30;;;;;;;4.18;100.00;101463.72;5092257;28;20028;-46
2023/12/20 06:50:22;;;;;;;0.40;0.40;;;;;;;4.19;100.00;101461.25;5091611;28;20024;-48
2023/12/20 06:52:47;;;;;;;0.40;0.40;;;;;;;4.19;100.00;101461.25;5092444;28;20028;-46
2023/12/20 06:55:13;;;;;;;0.50;0.50;;;;;;;4.20;100.00;101459.59;5091959;28;20028;-47
2023/12/20 06:57:38;;;;;;;0.40;0.40;;;;;;;4.20;100.00;101455.38;5091906;28;20103;-48
2023/12/20 07:00:04;;;;;;;0.40;0.40;;;;;;;4.20;100.00;101459.59;5092537;28;20016;-47
2023/12/20 07:02:30;;;;;;;0.40;0.40;;;;;;;4.20;100.00;101455.38;5091957;28;20021;-46
2023/12/20 07:04:55;;;;;;;0.30;0.30;;;;;;;4.20;100.00;101457.94;5091866;28;20445;-47
2023/12/20 07:07:21;;;;;;;0.40;0.40;;;;;;;4.20;100.00;101452.81;5092087;28;20038;-45
2023/12/20 07:09:46;;;;;;;0.30;0.30;;;;;;;4.20;100.00;101447.72;5092118;28;20028;-46
2023/12/20 07:12:11;;;;;;;0.40;0.40;;;;;;;4.20;100.00;101454.50;5091556;28;20028;-48
2023/12/20 07:14:37;;;;;;;0.40;0.40;;;;;;;4.20;100.00;101452.81;5092130;28;20027;-45
2023/12/20 07:17:02;;;;;;;0.40;0.40;;;;;;;4.20;100.00;101452.81;5092026;28;20531;-48
2023/12/20 07:19:28;;;;;;;0.35;0.35;;;;;;;4.20;100.00;101445.19;5091161;28;20028;-46
2023/12/20 07:21:53;;;;;;;0.40;0.40;;;;;;;4.20;100.00;101441.75;5092463;28;20407;-45
2023/12/20 07:24:19;;;;;;;0.40;0.40;;;;;;;4.19;100.00;101445.09;5091696;28;20357;-48
2023/12/20 07:26:44;;;;;;;0.32;0.32;;;;;;;4.19;100.00;101463.81;5091850;28;20097;-47
2023/12/20 07:29:09;;;;;;;0.40;0.40;;;;;;;4.21;100.00;101456.25;5091984;28;20379;-45
2023/12/20 07:31:35;;;;;;;0.30;0.30;;;;;;;4.21;100.00;101458.81;5093099;28;20024;-49
2023/12/20 07:34:00;;;;;;;0.45;0.45;;;;;;;4.22;100.00;101458.03;5095122;28;20020;-47
2023/12/20 07:36:25;;;;;;;0.40;0.40;;;;;;;4.21;100.00;101454.59;5095593;28;20028;-46
2023/12/20 07:38:50;;;;;;;0.40;0.40;;;;;;;4.22;100.00;101452.91;5094950;28;20375;-45
2023/12/20 07:41:16;;;;;;;0.30;0.30;;;;;;;4.23;100.00;101449.59;5095513;28;20032;-46
2023/12/20 07:43:42;;;;;;;0.30;0.30;;;;;;;4.23;100.00;101452.16;5095636;28;20024;-45
2023/12/20 07:46:08;;;;;;;0.40;0.40;;;;;;;4.23;100.00;101449.59;5094747;28;20388;-46
2023/12/20 07:48:37;;;;;;;0.30;0.30;;;;;;;4.24;100.00;101448.81;5095144;28;20035;-48
2023/12/20 07:51:03;;;;;;;0.40;0.40;;;;;;;4.26;100.00;101449.78;5095512;28;20024;-48
2023/12/20 07:53:29;;;;;;;0.40;0.40;;;;;;;4.27;100.00;101449.91;5094859;28;20019;-48
2023/12/20 07:55:55;;;;;;;0.40;0.40;;;;;;;4.28;100.00;101451.66;5095628;28;20024;-47
2023/12/20 07:58:20;;;;;;;0.30;0.30;;;;;;;4.30;100.00;101446.66;5094994;28;20034;-45
2023/12/20 08:00:45;;;;;;;0.40;0.40;;;;;;;4.32;100.00;101441.66;5094866;28;20028;-47
2023/12/20 08:03:10;;;;;;;0.40;0.40;;;;;;;4.35;100.00;101452.03;5095079;28;20028;-45
2023/12/20 08:05:39;;;;;;;0.40;0.40;;;;;;;4.38;100.00;101454.81;5095316;28;20028;-48
2023/12/20 08:08:04;;;;;;;0.32;0.32;;;;;;;4.41;100.00;101457.56;5094931;28;20024;-46
2023/12/20 08:10:30;;;;;;;0.40;0.40;;;;;;;4.44;100.00;101463.75;5094960;28;20377;-45
2023/12/20 08:12:55;;;;;;;0.40;0.40;;;;;;;4.47;100.00;101446.84;5094980;28;20054;-46
2023/12/20 08:15:20;;;;;;;0.35;0.35;;;;;;;4.49;100.00;101453.81;5094406;28;20040;-46
2023/12/20 08:17:46;;;;;;;0.40;0.40;;;;;;;4.52;100.00;101451.47;5094905;28;20043;-44
2023/12/20 08:20:11;;;;;;;0.40;0.40;;;;;;;4.55;100.00;101453.34;5094287;28;20448;-47
2023/12/20 08:22:36;;;;;;;0.40;0.40;;;;;;;4.59;100.00;101462.94;5094567;28;20027;-46
2023/12/20 08:25:02;;;;;;;0.40;0.40;;;;;;;4.60;100.00;101469.84;5094640;28;20365;-49
2023/12/20 08:27:27;;;;;;;0.40;0.40;;;;;;;4.66;100.00;101474.44;5094551;28;20026;-45
2023/12/20 08:29:52;;;;;;;0.40;0.40;;;;;;;4.68;100.00;101478.84;5094389;28;20387;-43
2023/12/20 08:32:17;;;;;;;0.30;0.30;;;;;;;4.71;100.00;101462.84;5094565;28;20476;-45
2023/12/20 08:34:43;;;;;;;0.40;0.40;;;;;;;4.76;100.00;101474.22;5094904;28;20020;-48
2023/12/20 08:37:08;;;;;;;0.30;0.30;;;;;;;4.77;100.00;101469.22;5094273;28;20379;-46
2023/12/20 08:39:33;;;;;;;0.38;0.38;;;;;;;4.80;100.00;101468.53;5094703;28;20028;-46
2023/12/20 08:41:59;;;;;;;0.40;0.40;;;;;;;4.80;100.00;101473.63;5094388;28;20151;-48
2023/12/20 08:44:24;;;;;;;0.40;0.40;;;;;;;4.81;100.00;101470.28;5109904;28;20024;-45
2023/12/20 08:46:50;;;;;;;0.40;0.40;;;;;;;4.84;100.00;101470.50;5100032;28;20040;-45
2023/12/20 08:49:15;;;;;;;0.40;0.40;;;;;;;4.87;100.00;101460.47;5109243;28;20095;-49
2023/12/20 08:51:41;;;;;;;0.38;0.38;;;;;;;4.89;100.00;101448.69;5114946;28;20024;-44
2023/12/20 08:54:07;;;;;;;0.40;0.40;;;;;;;4.93;100.00;101437.88;5114819;28;20026;-44
2023/12/20 08:56:33;;;;;;;0.40;0.40;;;;;;;4.95;100.00;101437.97;5114062;28;20032;-44
2023/12/20 08:58:59;;;;;;;0.30;0.30;;;;;;;4.97;100.00;101440.59;5114367;28;20027;-45
2023/12/20 09:01:24;;;;;;;0.30;0.30;;;;;;;4.99;100.00;101433.94;5113483;28;20027;-45
2023/12/20 09:03:49;;;;;;;0.30;0.30;;;;;;;5.02;100.00;101429.00;5112806;28;20372;-44
2023/12/20 09:06:15;;;;;;;0.40;0.40;;;;;;;5.02;100.00;101435.00;5113949;28;20031;-44
2023/12/20 09:08:40;;;;;;;0.40;0.40;;;;;;;5.02;100.00;101435.00;5114157;28;20061;-46
2023/12/20 09:11:06;;;;;;;0.40;0.40;;;;;;;5.02;100.00;101429.91;5112462;28;20415;-43
2023/12/20 09:13:32;;;;;;;0.30;0.30;;;;;;;5.04;100.00;101435.09;5113940;28;20023;-49
2023/12/20 09:15:57;;;;;;;0.35;0.35;;;;;;;5.07;100.00;101433.63;5114135;28;20016;-49
2023/12/20 09:18:23;;;;;;;0.35;0.35;;;;;;;5.08;100.00;101429.38;5113676;28;20024;-44
2023/12/20 09:20:48;;;;;;;0.40;0.40;;;;;;;5.09;100.00;101439.69;5114253;28;20030;-45
2023/12/20 09:23:13;;;;;;;0.30;0.30;;;;;;;5.10;100.00;101441.47;5111764;28;20394;-44
2023/12/20 09:25:39;;;;;;;0.30;0.30;;;;;;;5.11;100.00;101445.78;5113486;28;20029;-49
2023/12/20 09:28:05;;;;;;;0.30;0.30;;;;;;;5.14;100.00;101445.09;5114230;28;20082;-45
2023/12/20 09:30:30;;;;;;;0.32;0.32;;;;;;;5.16;100.00;101447.72;5113250;28;20024;-42
2023/12/20 09:32:55;;;;;;;0.40;0.40;;;;;;;5.16;100.00;101446.06;5113396;28;20020;-44
2023/12/20 09:35:21;;;;;;;0.43;0.43;;;;;;;5.19;100.00;101445.34;5113395;28;20039;-44
2023/12/20 09:37:47;;;;;;;0.30;0.30;;;;;;;5.21;100.00;101437.00;5112486;28;20110;-44
2023/12/20 09:40:18;;;;;;;0.40;0.40;;;;;;;5.24;100.00;101437.19;5113064;28;20114;-45
2023/12/20 09:42:55;;;;;;;0.50;0.50;;;;;;;5.25;100.00;101440.63;5113985;28;20071;-45
2023/12/20 09:45:24;;;;;;;0.30;0.30;;;;;;;5.28;100.00;101435.72;5112216;28;20028;-45
2023/12/20 09:47:52;;;;;;;0.32;0.32;;;;;;;5.29;100.00;101440.00;5113901;28;20023;-48
2023/12/20 09:50:19;;;;;;;0.40;0.40;;;;;;;5.31;100.00;101435.88;5104953;28;20028;-46
2023/12/20 09:52:49;;;;;;;0.50;0.50;;;;;;;5.32;100.00;101434.19;5106173;28;20023;-45
2023/12/20 09:55:16;;;;;;;0.38;0.38;;;;;;;5.33;100.00;101438.53;5092595;28;20031;-47
2023/12/20 09:57:42;;;;;;;0.40;0.40;;;;;;;5.34;100.00;101441.19;5093017;28;20024;-46
2023/12/20 10:00:08;;;;;;;0.40;0.40;;;;;;;5.35;100.00;101444.63;5092565;28;20024;-46
2023/12/20 10:02:35;;;;;;;0.40;0.40;;;;;;;5.36;100.00;101442.16;5092874;28;20031;-45
2023/12/20 10:05:03;;;;;;;0.30;0.30;;;;;;;5.40;100.00;101436.44;5092903;28;20085;-45
2023/12/20 10:07:28;;;;;;;0.40;0.40;;;;;;;5.44;100.00;101432.41;5092198;28;20375;-44
2023/12/20 10:09:55;;;;;;;0.30;0.30;;;;;;;5.49;100.00;101441.22;5093025;28;20482;-43
2023/12/20 10:12:21;;;;;;;0.30;0.30;;;;;;;5.52;100.00;101430.28;5092538;28;20024;-46
2023/12/20 10:14:46;;;;;;;0.40;0.40;;;;;;;5.57;100.00;101432.31;5092660;28;20020;-47
2023/12/20 10:17:11;;;;;;;0.40;0.40;;;;;;;5.60;100.00;101431.63;5092671;28;20016;-45
2023/12/20 10:19:37;;;;;;;0.32;0.32;;;;;;;5.63;100.00;101421.59;5092633;28;20031;-47
2023/12/20 10:22:05;;;;;;;0.30;0.30;;;;;;;5.65;100.00;101427.66;5092317;28;20031;-48
2023/12/20 10:24:30;;;;;;;0.32;0.32;;;;;;;5.70;100.00;101422.84;5092290;28;20463;-46
2023/12/20 10:27:06;;;;;;;0.40;0.40;;;;;;;5.75;100.00;101431.66;5092564;28;20024;-45
2023/12/20 10:29:35;;;;;;;0.30;0.30;;;;;;;5.80;100.00;101437.91;5091946;28;20065;-48
2023/12/20 10:32:24;;;;;;;0.30;0.30;;;;;;;5.85;100.00;101448.41;5093064;28;20027;-47
2023/12/20 10:34:50;;;;;;;0.40;0.40;;;;;;;5.84;100.00;101436.44;5092478;28;20016;-48
2023/12/20 10:37:16;;;;;;;0.30;0.30;;;;;;;5.84;100.00;101427.06;5092633;28;20016;-43
2023/12/20 10:39:42;;;;;;;0.25;0.25;;;;;;;5.84;100.00;101433.88;5092862;28;20023;-44
2023/12/20 10:42:10;;;;;;;0.30;0.30;;;;;;;5.83;100.00;101430.41;5091132;28;20103;-49
2023/12/20 10:44:36;;;;;;;0.30;0.30;;;;;;;5.81;100.00;101428.56;5092048;28;20153;-46
2023/12/20 10:47:02;;;;;;;0.30;0.30;;;;;;;5.79;100.00;101418.25;5090843;28;20577;-45
2023/12/20 10:49:29;;;;;;;0.30;0.30;;;;;;;5.78;100.00;101408.81;5090714;28;20157;-43
2023/12/20 10:51:57;;;;;;;0.32;0.32;;;;;;;5.76;100.00;101402.72;5092556;28;20020;-42
2023/12/20 10:54:22;;;;;;;;;;;;;;;5.83;100.00;101404.84;5092775;28;20114;-45
2023/12/20 10:56:51;;;;;;;0.20;0.20;;;;;;;5.74;100.00;101392.38;5092071;28;20356;-47
2023/12/20 10:59:19;;;;;;;0.30;0.30;;;;;;;5.74;100.00;101400.06;5092365;28;20355;-45
2023/12/20 11:01:47;;;;;;;0.30;0.30;;;;;;;5.76;100.00;101392.50;5092277;28;20024;-45
2023/12/20 11:04:18;;;;;;;0.30;0.30;;;;;;;5.79;100.00;101385.00;5091672;28;20028;-49
2023/12/20 11:06:48;;;;;;;0.30;0.30;;;;;;;5.82;100.00;101392.81;5094385;28;20025;-49
2023/12/20 11:09:23;;;;;;;0.40;0.40;;;;;;;5.87;100.00;101400.78;5096320;28;20391;-44
2023/12/20 11:12:04;;;;;;;0.22;0.22;;;;;;;5.90;100.00;101401.84;5096006;28;20020;-49
2023/12/20 11:14:40;;;;;;;0.40;0.40;;;;;;;5.91;100.00;101388.28;5095913;28;21023;-44
2023/12/20 11:17:14;;;;;;;0.30;0.30;;;;;;;5.94;100.00;101388.44;5095841;28;20066;-45
2023/12/20 11:19:57;;;;;;;0.30;0.30;;;;;;;5.96;100.00;101398.75;5096478;28;20042;-47